Latest Weather Observations for Hay Point

IDQ60801

Issued at 10:32 pm EST Friday 15 November 2019 (issued every 10 minutes, with the page automatically refreshed every 10 minutes)

About weather observations | Map of weather stations | Latest weather observations for QLD | Other Formats
Station Details ID: 033317 Name: HAY POINT Lat: -21.29 Lon: 149.30 Height: 7.0 m
Data from the previous 72 hours. | See also: Recent months for locations in Queensland
Date/Time
EST
Temp
°C
App
Temp
°C
Dew
Point
°C
Rel
Hum
%
Delta-T
°C
Wind Press
QNH
hPa
Press
MSL
hPa
Rain since
9am
mm
Dir  Spd
km/h
Gust
km/h
Spd
kts
Gust
kts
15/10:30pm - - - - - N 26 30 14 16 - - -
15/10:00pm - - - - - N 26 30 14 16 - - -
15/09:30pm - - - - - N 28 32 15 17 - - -
15/09:00pm - - - - - N 26 30 14 16 - - -
15/08:30pm - - - - - N 24 28 13 15 - - -
15/08:00pm - - - - - N 26 30 14 16 - - -
15/07:30pm - - - - - NNE 28 33 15 18 - - -
15/07:00pm - - - - - NNE 30 33 16 18 - - -
15/06:30pm - - - - - NNE 28 32 15 17 - - -
15/06:00pm - - - - - NNE 30 33 16 18 - - -
15/05:30pm - - - - - NNE 28 32 15 17 - - -
15/05:00pm - - - - - NNE 30 32 16 17 - - -
15/04:30pm - - - - - NNE 28 30 15 16 - - -
15/04:00pm - - - - - NNE 26 30 14 16 - - -
15/03:30pm - - - - - NNE 26 30 14 16 - - -
15/03:00pm - - - - - NNE 24 28 13 15 - - -
15/02:30pm - - - - - NNE 22 26 12 14 - - -
15/02:00pm - - - - - NNE 22 28 12 15 - - -
15/01:30pm - - - - - NNE 20 26 11 14 - - -
15/01:00pm - - - - - NNE 22 28 12 15 - - -
15/12:30pm - - - - - NNE 24 28 13 15 - - -
15/12:00pm - - - - - NNE 20 24 11 13 - - -
15/11:30am - - - - - N 20 24 11 13 - - -
15/11:00am - - - - - N 19 24 10 13 - - -
15/10:30am - - - - - N 20 26 11 14 - - -
15/10:00am - - - - - N 20 22 11 12 - - -
15/09:30am - - - - - NNE 20 26 11 14 - - -
15/09:00am - - - - - NNE 22 26 12 14 - - -
15/08:30am - - - - - NNE 22 28 12 15 - - -
15/08:00am - - - - - NNE 24 30 13 16 - - -
15/07:30am - - - - - NNE 26 30 14 16 - - -
15/07:00am - - - - - NNE 28 32 15 17 - - -
15/06:30am - - - - - NNE 24 28 13 15 - - -
15/06:00am - - - - - NNE 22 28 12 15 - - -
15/05:30am - - - - - N 20 30 11 16 - - -
15/05:00am - - - - - N 24 28 13 15 - - -
15/04:30am - - - - - N 22 26 12 14 - - -
15/04:00am - - - - - NW 9 11 5 6 - - -
15/03:30am - - - - - WNW 9 13 5 7 - - -
15/03:00am - - - - - W 11 11 6 6 - - -
15/02:30am - - - - - W 9 11 5 6 - - -
15/02:00am - - - - - WNW 11 13 6 7 - - -
15/01:30am - - - - - WNW 13 17 7 9 - - -
15/01:00am - - - - - N 28 32 15 17 - - -
15/12:30am - - - - - N 22 28 12 15 - - -
15/12:00am - - - - - N 28 30 15 16 - - -
 
Date/Time
EST
Temp
°C
App
Temp
°C
Dew
Point
°C
Rel
Hum
%
Delta-T
°C
Wind Press
QNH
hPa
Press
MSL
hPa
Rain since
9am
mm
Dir  Spd
km/h
Gust
km/h
Spd
kts
Gust
kts
14/11:30pm - - - - - N 28 32 15 17 - - -
14/11:00pm - - - - - N 24 28 13 15 - - -
14/10:30pm - - - - - NNE 28 30 15 16 - - -
14/10:00pm - - - - - NNE 22 26 12 14 - - -
14/09:30pm - - - - - NE 17 22 9 12 - - -
14/09:00pm - - - - - NNE 17 19 9 10 - - -
14/08:30pm - - - - - NNE 24 32 13 17 - - -
14/08:00pm - - - - - NNE 30 33 16 18 - - -
14/07:30pm - - - - - NNE 28 32 15 17 - - -
14/07:00pm - - - - - NNE 32 37 17 20 - - -
14/06:30pm - - - - - NNE 30 35 16 19 - - -
14/06:00pm - - - - - NNE 30 33 16 18 - - -
14/05:30pm - - - - - NNE 30 35 16 19 - - -
14/05:00pm - - - - - NE 33 39 18 21 - - -
14/04:30pm - - - - - NE 30 33 16 18 - - -
14/04:00pm - - - - - NE 28 32 15 17 - - -
14/03:30pm - - - - - NE 28 30 15 16 - - -
14/03:00pm - - - - - NNE 26 32 14 17 - - -
14/02:30pm - - - - - NNE 26 30 14 16 - - -
14/02:00pm - - - - - NNE 28 33 15 18 - - -
14/01:30pm - - - - - NNE 28 32 15 17 - - -
14/01:00pm - - - - - NNE 28 32 15 17 - - -
14/12:30pm - - - - - NNE 28 30 15 16 - - -
14/12:00pm - - - - - NNE 28 32 15 17 - - -
14/11:30am - - - - - NNE 28 32 15 17 - - -
14/11:00am - - - - - NNE 28 32 15 17 - - -
14/10:30am - - - - - N 26 30 14 16 - - -
14/10:00am - - - - - N 28 30 15 16 - - -
14/09:30am - - - - - N 24 28 13 15 - - -
14/09:00am - - - - - N 24 28 13 15 - - -
14/08:30am - - - - - NNW 20 24 11 13 - - -
14/08:00am - - - - - NW 17 22 9 12 - - -
14/07:30am - - - - - NW 15 19 8 10 - - -
14/07:00am - - - - - WNW 13 17 7 9 - - -
14/06:30am - - - - - WNW 13 17 7 9 - - -
14/06:00am - - - - - WSW 11 15 6 8 - - -
14/05:30am - - - - - SW 15 19 8 10 - - -
14/05:00am - - - - - SW 13 17 7 9 - - -
14/04:30am - - - - - SW 19 26 10 14 - - -
14/04:00am - - - - - W 15 19 8 10 - - -
14/03:30am - - - - - WNW 13 15 7 8 - - -
14/03:00am - - - - - WNW 15 19 8 10 - - -
14/02:30am - - - - - WNW 15 20 8 11 - - -
14/02:00am - - - - - NW 17 20 9 11 - - -
14/01:30am - - - - - NW 17 22 9 12 - - -
14/01:00am - - - - - NW 22 32 12 17 - - -
14/12:30am - - - - - NNW 32 37 17 20 - - -
14/12:00am - - - - - NNW 33 39 18 21 - - -
 
Date/Time
EST
Temp
°C
App
Temp
°C
Dew
Point
°C
Rel
Hum
%
Delta-T
°C
Wind Press
QNH
hPa
Press
MSL
hPa
Rain since
9am
mm
Dir  Spd
km/h
Gust
km/h
Spd
kts
Gust
kts
13/11:30pm - - - - - NNW 32 39 17 21 - - -
13/11:00pm - - - - - N 33 39 18 21 - - -
13/10:30pm - - - - - N 35 41 19 22 - - -
13/10:00pm - - - - - N 37 43 20 23 - - -
13/09:30pm - - - - - N 33 41 18 22 - - -
13/09:00pm - - - - - N 37 44 20 24 - - -
13/08:30pm - - - - - N 32 35 17 19 - - -
13/08:00pm - - - - - N 35 43 19 23 - - -
13/07:30pm - - - - - N 33 39 18 21 - - -
13/07:00pm - - - - - N 33 41 18 22 - - -
13/06:30pm - - - - - N 32 37 17 20 - - -
13/06:00pm - - - - - N 32 35 17 19 - - -
13/05:30pm - - - - - N 33 39 18 21 - - -
13/05:00pm - - - - - N 32 39 17 21 - - -
13/04:30pm - - - - - N 33 37 18 20 - - -
13/04:00pm - - - - - N 32 35 17 19 - - -
13/03:30pm - - - - - N 33 37 18 20 - - -
13/03:00pm - - - - - NNE 33 37 18 20 - - -
13/02:30pm - - - - - NNE 32 35 17 19 - - -
13/02:00pm - - - - - NNE 32 35 17 19 - - -
13/01:30pm - - - - - NNE 32 35 17 19 - - -
13/01:00pm - - - - - N 28 33 15 18 - - -
13/12:30pm - - - - - N 32 35 17 19 - - -
13/12:00pm - - - - - N 33 37 18 20 - - -
13/11:30am - - - - - N 35 39 19 21 - - -
13/11:00am - - - - - N 35 39 19 21 - - -
13/10:30am - - - - - N 33 39 18 21 - - -
13/10:00am - - - - - N 32 35 17 19 - - -
13/09:30am - - - - - N 30 33 16 18 - - -
13/09:00am - - - - - NNW 28 32 15 17 - - -
13/08:30am - - - - - NNW 28 33 15 18 - - -
13/08:00am - - - - - NW 20 28 11 15 - - -
13/07:30am - - - - - NW 19 22 10 12 - - -
13/07:00am - - - - - WNW 17 24 9 13 - - -
13/06:30am - - - - - WNW 15 17 8 9 - - -
13/06:00am - - - - - W 13 19 7 10 - - -
13/05:30am - - - - - WNW 17 19 9 10 - - -
13/05:00am - - - - - WNW 13 17 7 9 - - -
13/04:30am - - - - - WNW 13 15 7 8 - - -
13/04:00am - - - - - WNW 11 13 6 7 - - -
13/03:30am - - - - - WNW 17 19 9 10 - - -
13/03:00am - - - - - NW 20 28 11 15 - - -
13/02:30am - - - - - N 32 39 17 21 - - -
13/02:00am - - - - - N 33 37 18 20 - - -
13/01:30am - - - - - N 33 37 18 20 - - -
13/01:00am - - - - - N 30 35 16 19 - - -
13/12:30am - - - - - N 30 37 16 20 - - -
13/12:00am - - - - - N 30 33 16 18 - - -
 
Date/Time
EST
Temp
°C
App
Temp
°C
Dew
Point
°C
Rel
Hum
%
Delta-T
°C
Wind Press
QNH
hPa
Press
MSL
hPa
Rain since
9am
mm
Dir  Spd
km/h
Gust
km/h
Spd
kts
Gust
kts
12/11:30pm - - - - - N 32 35 17 19 - - -
12/11:00pm - - - - - N 28 32 15 17 - - -

Other formats

Comma delimited format used in spreadsheet applications
http://www.bom.gov.au/fwo/IDQ60801/IDQ60801.99367.axf

JavaScript Object Notation format (JSON) in row-major order
http://www.bom.gov.au/fwo/IDQ60801/IDQ60801.99367.json

Data quality

Most of these data are generated automatically and are frequently updated. Quality checks on data are not normally performed. It is possible for incorrect values to appear. Refer to information at About Latest Weather Observations and please check the disclaimer before using these data.